Time;durP1;ratioP1;P1;durP2;ratioP2;P2;SDS_P1;SDS_P2;PMS_P1;PMS_P2;Temp;Humidity;BMP_temperature;BMP_pressure;BME280_temperature;BME280_humidity;BME280_pressure;Samples;Min_cycle;Max_cycle;Signal;HPM_P1;HPM_P2
2021/05/25 00:00:59;;;;;;;2.00;1.10;;;5.80;99.90;;;;;;2071934;28;20198;-68
2021/05/25 00:02:00;;;;;;;3.70;0.90;;;5.80;99.90;;;;;;2063970;28;20192;-68
2021/05/25 00:03:05;;;;;;;0.97;0.80;;;5.90;99.90;;;;;;2063873;28;20177;-68
2021/05/25 00:04:06;;;;;;;2.20;1.00;;;5.90;99.90;;;;;;2072893;28;20197;-68
2021/05/25 00:05:10;;;;;;;0.90;0.73;;;5.90;99.90;;;;;;2080883;28;20181;-70
2021/05/25 00:06:10;;;;;;;4.15;1.00;;;5.80;99.90;;;;;;2072197;28;20215;-70
2021/05/25 00:07:11;;;;;;;2.77;0.90;;;5.80;99.90;;;;;;2072142;28;20303;-70
2021/05/25 00:08:12;;;;;;;2.43;1.07;;;5.70;99.90;;;;;;2080917;28;20199;-70
2021/05/25 00:09:14;;;;;;;1.93;0.90;;;5.70;99.90;;;;;;2083338;28;20241;-70
2021/05/25 00:10:16;;;;;;;1.38;1.13;;;5.70;99.90;;;;;;2088431;28;20287;-70
2021/05/25 00:11:16;;;;;;;1.63;1.00;;;5.60;99.90;;;;;;2079997;28;20219;-70
2021/05/25 00:12:17;;;;;;;2.87;0.80;;;5.60;99.90;;;;;;2080511;28;20221;-69
2021/05/25 00:13:18;;;;;;;1.27;0.90;;;5.60;99.90;;;;;;2080272;28;20187;-70
2021/05/25 00:14:20;;;;;;;3.20;0.70;;;5.60;99.90;;;;;;2080471;28;20208;-69
2021/05/25 00:15:24;;;;;;;1.95;0.90;;;5.60;99.90;;;;;;2080417;28;20238;-68
2021/05/25 00:16:24;;;;;;;3.15;0.90;;;5.60;99.90;;;;;;2080416;28;20257;-68
2021/05/25 00:17:25;;;;;;;2.87;0.80;;;5.50;99.90;;;;;;2080526;28;20179;-68
2021/05/25 00:18:26;;;;;;;1.35;0.80;;;5.40;99.90;;;;;;2080600;28;20194;-69
2021/05/25 00:19:27;;;;;;;0.90;0.70;;;5.40;99.90;;;;;;2088427;28;20184;-69
2021/05/25 00:20:29;;;;;;;3.73;1.20;;;5.40;99.90;;;;;;2078576;28;20659;-69
2021/05/25 00:21:30;;;;;;;2.30;0.80;;;5.40;99.90;;;;;;2063996;28;20648;-69
2021/05/25 00:22:30;;;;;;;2.43;0.90;;;5.40;99.90;;;;;;2063792;28;20236;-69
2021/05/25 00:23:31;;;;;;;1.40;0.70;;;5.40;99.90;;;;;;2072746;28;20436;-69
2021/05/25 00:24:33;;;;;;;2.97;1.00;;;5.40;99.90;;;;;;2072462;28;20869;-69
2021/05/25 00:25:34;;;;;;;2.53;0.82;;;5.40;99.90;;;;;;2063961;28;20816;-69
2021/05/25 00:26:35;;;;;;;0.70;0.50;;;5.40;99.90;;;;;;2063884;28;20195;-69
2021/05/25 00:27:36;;;;;;;2.57;0.90;;;5.40;99.90;;;;;;2072706;28;20186;-69
2021/05/25 00:28:37;;;;;;;1.65;1.10;;;5.40;99.90;;;;;;2071816;28;20192;-69
2021/05/25 00:29:37;;;;;;;2.23;1.00;;;5.30;99.90;;;;;;2072160;28;20188;-69
2021/05/25 00:30:38;;;;;;;2.47;0.80;;;5.40;99.90;;;;;;2063917;28;20187;-69
2021/05/25 00:31:39;;;;;;;3.73;0.97;;;5.30;99.90;;;;;;2071990;28;20202;-69
2021/05/25 00:32:41;;;;;;;3.90;0.80;;;5.40;99.90;;;;;;2080044;28;20254;-69
2021/05/25 00:33:42;;;;;;;3.47;0.73;;;5.30;99.90;;;;;;2072283;28;20765;-69
2021/05/25 00:34:43;;;;;;;1.27;0.70;;;5.40;99.90;;;;;;2063707;28;20235;-71
2021/05/25 00:35:43;;;;;;;2.43;0.90;;;5.30;99.90;;;;;;2063949;28;20208;-69
2021/05/25 00:36:44;;;;;;;1.47;0.80;;;5.30;99.90;;;;;;2063842;28;20268;-70
2021/05/25 00:37:45;;;;;;;2.47;0.93;;;5.30;99.90;;;;;;2055909;28;20820;-69
2021/05/25 00:38:45;;;;;;;1.20;0.80;;;5.30;99.90;;;;;;2055693;28;20193;-69
2021/05/25 00:39:46;;;;;;;3.10;0.80;;;5.20;99.90;;;;;;2063708;28;20185;-69
2021/05/25 00:40:47;;;;;;;1.80;0.80;;;5.30;99.90;;;;;;2072440;28;20230;-69
2021/05/25 00:41:48;;;;;;;4.10;1.00;;;5.30;99.90;;;;;;2063675;28;20430;-69
2021/05/25 00:42:49;;;;;;;4.73;1.50;;;5.20;99.90;;;;;;2063759;28;20296;-69
2021/05/25 00:43:49;;;;;;;1.83;0.90;;;5.20;99.90;;;;;;2036319;28;1048169;-69
2021/05/25 00:44:51;;;;;;;2.43;0.83;;;5.20;99.90;;;;;;2072680;28;20608;-69
2021/05/25 00:45:52;;;;;;;3.15;0.90;;;5.20;99.90;;;;;;2064130;28;20226;-69
2021/05/25 00:46:53;;;;;;;0.90;0.70;;;5.20;99.90;;;;;;2064209;28;20240;-69
2021/05/25 00:47:53;;;;;;;1.77;1.00;;;5.20;99.90;;;;;;2072983;28;20667;-69
2021/05/25 00:48:54;;;;;;;3.97;1.10;;;5.20;99.90;;;;;;2072807;28;20415;-69
2021/05/25 00:49:55;;;;;;;1.83;0.90;;;5.20;99.90;;;;;;2072913;28;20183;-69
2021/05/25 00:50:56;;;;;;;1.30;0.80;;;5.20;99.90;;;;;;2063953;28;20177;-69
2021/05/25 00:51:56;;;;;;;4.97;0.87;;;5.20;99.90;;;;;;2063925;28;20181;-69
2021/05/25 00:53:04;;;;;;;2.30;1.10;;;5.20;99.90;;;;;;2072692;28;20179;-69
2021/05/25 00:54:05;;;;;;;4.43;1.00;;;5.30;99.90;;;;;;2072736;28;20214;-68
2021/05/25 00:55:09;;;;;;;2.72;1.20;;;5.20;99.90;;;;;;2063998;28;20218;-69
2021/05/25 00:56:11;;;;;;;1.95;0.80;;;5.20;99.90;;;;;;2056245;28;20217;-69
2021/05/25 00:57:12;;;;;;;2.38;1.05;;;5.20;99.90;;;;;;2072252;28;20655;-69
2021/05/25 00:58:13;;;;;;;5.47;1.13;;;5.20;99.90;;;;;;2072202;28;20238;-68
2021/05/25 00:59:14;;;;;;;4.23;1.00;;;5.20;99.90;;;;;;2063995;28;20215;-69
2021/05/25 01:00:18;;;;;;;2.92;1.55;;;5.20;99.90;;;;;;2080344;28;20709;-69
2021/05/25 01:01:19;;;;;;;4.05;1.30;;;5.30;99.90;;;;;;2079341;28;20234;-69
2021/05/25 01:02:20;;;;;;;3.97;1.03;;;5.20;99.90;;;;;;2072845;28;20263;-69
2021/05/25 01:03:24;;;;;;;4.17;0.90;;;5.20;99.90;;;;;;2072686;28;20199;-69
2021/05/25 01:04:25;;;;;;;4.70;1.00;;;5.20;99.90;;;;;;2072646;28;20208;-69
2021/05/25 01:05:27;;;;;;;2.00;1.00;;;5.30;99.90;;;;;;2063915;28;20196;-69
2021/05/25 01:06:28;;;;;;;4.63;1.00;;;5.30;99.90;;;;;;2056021;28;20661;-68
2021/05/25 01:07:28;;;;;;;3.90;1.20;;;5.30;99.90;;;;;;2063936;28;20205;-69
2021/05/25 01:08:29;;;;;;;5.87;1.53;;;5.20;99.90;;;;;;2072702;28;20214;-69
2021/05/25 01:09:32;;;;;;;2.33;1.20;;;5.20;99.90;;;;;;2072714;28;20332;-69
2021/05/25 01:11:01;;;;;;;3.75;0.95;;;5.20;99.90;;;;;;2063916;28;20712;-69
2021/05/25 01:11:54;;;;;;;1.85;1.08;;;5.20;99.90;;;;;;2065963;28;20190;-68
2021/05/25 01:13:01;;;;;;;4.30;1.20;;;5.20;99.90;;;;;;2063875;28;20560;-69
2021/05/25 01:14:03;;;;;;;1.85;1.10;;;5.20;99.90;;;;;;2072739;28;20220;-69
2021/05/25 01:15:06;;;;;;;3.60;1.13;;;5.30;99.90;;;;;;2079379;28;20259;-69
2021/05/25 01:16:08;;;;;;;4.75;1.70;;;5.30;99.90;;;;;;2063894;28;20228;-69
2021/05/25 01:17:09;;;;;;;2.63;1.05;;;5.30;99.90;;;;;;2064249;28;20191;-68
2021/05/25 01:18:10;;;;;;;1.27;0.98;;;5.30;99.90;;;;;;2072449;28;20188;-69
2021/05/25 01:19:10;;;;;;;4.50;1.20;;;5.30;99.90;;;;;;2072682;28;20185;-69
2021/05/25 01:20:13;;;;;;;4.40;1.20;;;5.30;99.90;;;;;;2072529;28;20189;-69
2021/05/25 01:21:14;;;;;;;3.60;1.13;;;5.30;99.90;;;;;;2072447;28;20576;-69
2021/05/25 01:22:15;;;;;;;4.32;1.20;;;5.30;99.90;;;;;;2080155;28;20215;-68
2021/05/25 01:23:17;;;;;;;2.70;1.17;;;5.30;99.90;;;;;;2080168;28;20184;-68
2021/05/25 01:24:17;;;;;;;4.55;1.30;;;5.40;99.90;;;;;;2063837;28;20209;-68
2021/05/25 01:25:20;;;;;;;4.10;1.20;;;5.40;99.90;;;;;;2064135;28;20264;-69
2021/05/25 01:26:21;;;;;;;3.13;0.95;;;5.40;99.90;;;;;;2072608;28;20218;-68
2021/05/25 01:27:22;;;;;;;3.67;1.45;;;5.50;99.90;;;;;;2072672;28;20409;-68
2021/05/25 01:28:24;;;;;;;2.33;1.00;;;5.40;99.90;;;;;;2072350;28;20229;-68
2021/05/25 01:29:24;;;;;;;3.45;1.13;;;5.40;99.90;;;;;;2072086;28;20246;-68
2021/05/25 01:30:35;;;;;;;4.90;1.10;;;5.50;99.90;;;;;;2072077;28;20639;-68
2021/05/25 01:31:36;;;;;;;4.60;2.03;;;5.50;99.90;;;;;;2072499;28;20219;-68
2021/05/25 01:32:37;;;;;;;2.70;1.10;;;5.50;99.90;;;;;;2072541;28;20643;-68
2021/05/25 01:33:38;;;;;;;3.77;1.40;;;5.50;99.90;;;;;;2063809;28;20677;-68
2021/05/25 01:34:38;;;;;;;4.60;1.43;;;5.50;99.90;;;;;;2055489;28;20201;-69
2021/05/25 01:35:40;;;;;;;2.97;0.97;;;5.60;99.90;;;;;;2063918;28;20257;-68
2021/05/25 01:36:44;;;;;;;3.08;1.23;;;5.60;99.90;;;;;;2063822;28;20204;-69
2021/05/25 01:37:47;;;;;;;4.18;1.30;;;5.60;99.90;;;;;;2072584;28;20185;-69
2021/05/25 01:38:47;;;;;;;3.97;1.20;;;5.70;99.90;;;;;;2071756;28;20585;-68
2021/05/25 01:39:53;;;;;;;4.20;1.30;;;5.70;99.90;;;;;;2063794;28;20217;-68
2021/05/25 01:40:56;;;;;;;4.25;1.17;;;5.70;99.90;;;;;;2063701;28;20245;-68
2021/05/25 01:41:57;;;;;;;4.80;1.10;;;5.70;99.90;;;;;;2064516;28;20211;-69
2021/05/25 01:42:59;;;;;;;7.63;1.65;;;5.60;99.90;;;;;;2063851;28;20185;-69
2021/05/25 01:43:59;;;;;;;5.28;1.40;;;5.40;99.90;;;;;;2071989;28;20655;-68
2021/05/25 01:45:01;;;;;;;3.63;1.50;;;5.30;99.90;;;;;;2079932;28;20202;-69
2021/05/25 01:46:03;;;;;;;4.22;1.10;;;5.20;99.90;;;;;;2072522;28;20180;-68
2021/05/25 01:47:03;;;;;;;1.65;0.85;;;5.10;99.90;;;;;;2072427;28;20179;-70
2021/05/25 01:48:07;;;;;;;4.77;1.37;;;5.00;99.90;;;;;;2072519;28;20564;-68
2021/05/25 01:49:07;;;;;;;1.83;1.00;;;4.90;99.90;;;;;;2079945;28;20874;-70
2021/05/25 01:50:14;;;;;;;2.07;0.90;;;4.90;99.90;;;;;;2071889;28;20263;-70
2021/05/25 01:51:14;;;;;;;2.30;0.85;;;4.80;99.90;;;;;;2064341;28;20173;-70
2021/05/25 01:52:18;;;;;;;2.73;0.83;;;4.70;99.90;;;;;;2072544;28;20184;-71
2021/05/25 01:53:25;;;;;;;2.22;0.75;;;4.70;99.90;;;;;;2063707;28;20181;-68
2021/05/25 01:54:26;;;;;;;3.72;1.05;;;4.60;99.90;;;;;;2072738;28;20210;-70
2021/05/25 01:55:37;;;;;;;1.97;0.87;;;4.50;99.90;;;;;;2079868;28;20175;-70
2021/05/25 01:56:38;;;;;;;1.50;0.88;;;4.60;99.90;;;;;;2055680;28;20190;-68
2021/05/25 01:57:40;;;;;;;3.03;1.10;;;4.50;99.90;;;;;;2055632;28;20305;-68
2021/05/25 01:58:41;;;;;;;1.10;0.73;;;4.50;99.90;;;;;;2072527;28;20643;-70
2021/05/25 01:59:41;;;;;;;1.50;0.80;;;4.50;99.90;;;;;;2072372;28;20212;-68
2021/05/25 02:00:51;;;;;;;3.83;1.10;;;4.50;99.90;;;;;;2072570;28;20222;-70
2021/05/25 02:01:52;;;;;;;1.83;0.90;;;4.50;99.90;;;;;;2079276;28;20556;-70
2021/05/25 02:02:53;;;;;;;2.90;0.90;;;4.50;99.90;;;;;;2080690;28;20187;-69
2021/05/25 02:03:54;;;;;;;2.17;0.80;;;4.50;99.90;;;;;;2080622;28;20209;-70
2021/05/25 02:04:54;;;;;;;3.83;1.10;;;4.50;99.90;;;;;;2080686;28;20706;-71
2021/05/25 02:05:57;;;;;;;2.77;1.17;;;4.50;99.90;;;;;;2079954;28;20642;-70
2021/05/25 02:06:58;;;;;;;3.42;1.10;;;4.50;99.90;;;;;;2079941;28;20818;-70
2021/05/25 02:07:59;;;;;;;2.95;1.10;;;4.60;99.90;;;;;;2079869;28;20180;-70
2021/05/25 02:09:00;;;;;;;2.85;1.10;;;4.70;99.90;;;;;;2080733;28;20178;-70
2021/05/25 02:10:00;;;;;;;1.73;1.30;;;4.70;99.90;;;;;;2080528;28;20797;-70
2021/05/25 02:11:05;;;;;;;4.60;1.10;;;4.70;99.90;;;;;;2080631;28;20227;-70
2021/05/25 02:12:06;;;;;;;5.30;0.95;;;4.70;99.90;;;;;;2079618;28;20209;-70
2021/05/25 02:13:19;;;;;;;3.25;1.17;;;4.70;99.90;;;;;;2080038;28;20347;-71
2021/05/25 02:14:20;;;;;;;4.25;1.13;;;4.70;99.90;;;;;;2080610;28;20265;-69
2021/05/25 02:15:21;;;;;;;2.37;1.23;;;4.70;99.90;;;;;;2080608;28;20180;-70
2021/05/25 02:16:22;;;;;;;4.50;1.00;;;4.70;99.90;;;;;;2079962;28;20181;-70
2021/05/25 02:17:26;;;;;;;4.57;1.30;;;4.70;99.90;;;;;;2079995;28;20188;-72
2021/05/25 02:18:31;;;;;;;4.65;1.00;;;4.70;99.90;;;;;;2080671;28;20212;-72
2021/05/25 02:19:31;;;;;;;4.88;1.33;;;4.70;99.90;;;;;;2088230;28;20233;-70
2021/05/25 02:20:33;;;;;;;7.53;1.17;;;4.70;99.90;;;;;;2088103;28;20185;-70
2021/05/25 02:21:34;;;;;;;5.05;1.45;;;4.70;99.90;;;;;;2079746;28;20709;-71
2021/05/25 02:22:35;;;;;;;2.20;0.90;;;4.70;99.90;;;;;;2079934;28;20219;-70
2021/05/25 02:23:36;;;;;;;4.37;1.20;;;4.70;99.90;;;;;;2080603;28;20509;-70
2021/05/25 02:24:37;;;;;;;3.25;0.85;;;4.70;99.90;;;;;;2079834;28;20210;-70
2021/05/25 02:25:38;;;;;;;3.03;1.03;;;4.70;99.90;;;;;;2080039;28;20672;-70
2021/05/25 02:26:39;;;;;;;4.68;1.10;;;4.70;99.90;;;;;;2071866;28;20247;-70
2021/05/25 02:27:40;;;;;;;4.33;1.20;;;4.70;99.90;;;;;;2071799;28;20189;-70
2021/05/25 02:28:41;;;;;;;4.70;1.10;;;4.60;99.90;;;;;;2080407;28;20180;-70
2021/05/25 02:29:42;;;;;;;5.28;1.42;;;4.60;99.90;;;;;;2088119;28;20190;-69
2021/05/25 02:30:44;;;;;;;2.70;1.23;;;4.70;99.90;;;;;;2088142;28;20741;-69
2021/05/25 02:31:45;;;;;;;5.07;1.20;;;4.60;99.90;;;;;;2080363;28;20182;-69
2021/05/25 02:32:45;;;;;;;3.23;1.00;;;4.70;99.90;;;;;;2080601;28;20262;-69
2021/05/25 02:33:46;;;;;;;4.97;1.40;;;4.70;99.90;;;;;;2080212;28;20214;-69
2021/05/25 02:34:47;;;;;;;4.67;1.10;;;4.70;99.90;;;;;;2080603;28;20175;-70
2021/05/25 02:35:51;;;;;;;4.17;1.40;;;4.70;99.90;;;;;;2080548;28;20630;-69
2021/05/25 02:36:51;;;;;;;3.75;1.10;;;4.70;99.90;;;;;;2079943;28;20192;-70
2021/05/25 02:37:52;;;;;;;2.33;0.87;;;4.70;99.90;;;;;;2079912;28;20218;-69
2021/05/25 02:38:53;;;;;;;6.50;1.30;;;4.70;99.90;;;;;;2080632;28;20171;-70
2021/05/25 02:39:54;;;;;;;3.30;1.20;;;4.70;99.90;;;;;;2079737;28;20611;-69
2021/05/25 02:40:55;;;;;;;3.63;1.00;;;4.70;99.90;;;;;;2080275;28;20183;-69
2021/05/25 02:41:55;;;;;;;4.00;1.43;;;4.70;99.90;;;;;;2081151;28;20197;-69
2021/05/25 02:42:56;;;;;;;4.13;1.30;;;4.70;99.90;;;;;;2081470;28;20171;-69
2021/05/25 02:43:57;;;;;;;5.90;1.25;;;4.70;99.90;;;;;;2081190;28;20267;-69
2021/05/25 02:44:58;;;;;;;5.13;1.20;;;4.70;99.90;;;;;;2081387;28;20194;-69
2021/05/25 02:45:59;;;;;;;5.70;1.20;;;4.70;99.90;;;;;;2081295;28;20179;-69
2021/05/25 02:47:00;;;;;;;4.17;0.93;;;4.70;99.90;;;;;;2081431;28;20702;-69
2021/05/25 02:48:01;;;;;;;4.80;1.37;;;4.80;99.90;;;;;;2081227;28;20489;-69
2021/05/25 02:49:02;;;;;;;6.78;1.52;;;4.90;99.90;;;;;;2082022;28;20603;-69
2021/05/25 02:50:08;;;;;;;4.65;1.20;;;4.90;99.90;;;;;;2081806;28;20193;-69
2021/05/25 02:51:09;;;;;;;4.07;1.25;;;4.90;99.90;;;;;;2081304;28;20244;-70
2021/05/25 02:52:09;;;;;;;3.93;1.13;;;4.80;99.90;;;;;;2081205;28;20191;-70
2021/05/25 02:53:11;;;;;;;3.73;1.47;;;4.80;99.90;;;;;;2081765;28;20183;-69
2021/05/25 02:54:12;;;;;;;4.32;1.10;;;4.70;99.90;;;;;;2064381;28;20589;-70
2021/05/25 02:55:25;;;;;;;3.87;1.30;;;4.60;99.90;;;;;;2072350;28;20211;-70
2021/05/25 02:56:26;;;;;;;2.70;1.00;;;4.60;99.90;;;;;;2076167;28;20224;-69
2021/05/25 02:57:27;;;;;;;5.30;1.47;;;4.50;99.90;;;;;;2081177;28;20182;-70
2021/05/25 02:58:27;;;;;;;4.67;1.43;;;4.40;99.90;;;;;;2090174;28;20182;-69
2021/05/25 02:59:28;;;;;;;2.80;1.00;;;4.40;99.90;;;;;;2090103;28;20178;-69
2021/05/25 03:00:44;;;;;;;3.00;1.10;;;4.40;99.90;;;;;;2089988;28;20628;-69
2021/05/25 03:01:45;;;;;;;2.75;1.00;;;4.30;99.90;;;;;;2080713;28;20167;-69
2021/05/25 03:02:46;;;;;;;1.90;0.80;;;4.30;99.90;;;;;;2081221;28;20639;-68
2021/05/25 03:03:47;;;;;;;2.42;1.10;;;4.30;99.90;;;;;;2089976;28;20189;-69
2021/05/25 03:04:48;;;;;;;2.20;1.10;;;4.40;99.90;;;;;;2089467;28;20715;-68
2021/05/25 03:05:49;;;;;;;1.50;0.80;;;4.40;99.90;;;;;;2089350;28;20259;-69
2021/05/25 03:06:49;;;;;;;1.42;1.05;;;4.40;99.90;;;;;;2089994;28;20697;-70
2021/05/25 03:07:52;;;;;;;1.00;0.90;;;4.40;99.90;;;;;;2089964;28;20188;-69
2021/05/25 03:08:53;;;;;;;3.28;0.70;;;4.40;99.90;;;;;;2090003;28;20169;-69
2021/05/25 03:09:54;;;;;;;2.00;0.70;;;4.40;99.90;;;;;;2089939;28;20187;-68
2021/05/25 03:10:54;;;;;;;3.10;0.80;;;4.40;99.90;;;;;;2081117;28;20176;-69
2021/05/25 03:11:55;;;;;;;2.00;0.87;;;4.40;99.90;;;;;;2080846;28;20174;-69
2021/05/25 03:12:57;;;;;;;2.43;0.90;;;4.40;99.90;;;;;;2089953;28;20181;-70
2021/05/25 03:13:58;;;;;;;1.90;0.90;;;4.40;99.90;;;;;;2080955;28;20217;-69
2021/05/25 03:14:58;;;;;;;2.00;0.83;;;4.40;99.90;;;;;;2081099;28;20365;-69
2021/05/25 03:15:59;;;;;;;3.10;0.95;;;4.40;99.90;;;;;;2090069;28;20177;-69
2021/05/25 03:17:00;;;;;;;2.27;0.90;;;4.30;99.90;;;;;;2089885;28;20702;-69
2021/05/25 03:18:02;;;;;;;2.60;1.10;;;4.30;99.90;;;;;;2089857;28;20171;-68
2021/05/25 03:19:04;;;;;;;2.17;0.90;;;4.30;99.90;;;;;;2081009;28;20170;-69
2021/05/25 03:20:08;;;;;;;3.05;1.05;;;4.30;99.90;;;;;;2081242;28;20181;-69
2021/05/25 03:21:09;;;;;;;1.42;1.05;;;4.30;99.90;;;;;;2089867;28;20195;-69
2021/05/25 03:22:09;;;;;;;4.97;1.10;;;4.30;99.90;;;;;;2089977;28;20211;-69
2021/05/25 03:23:10;;;;;;;1.90;0.80;;;4.30;99.90;;;;;;2089775;28;20270;-69
2021/05/25 03:24:11;;;;;;;3.37;1.30;;;4.30;99.90;;;;;;2081061;28;20223;-69
2021/05/25 03:25:14;;;;;;;4.03;1.20;;;4.20;99.90;;;;;;2081036;28;20246;-70
2021/05/25 03:26:15;;;;;;;1.80;0.80;;;4.20;99.90;;;;;;2080973;28;20178;-69
2021/05/25 03:27:16;;;;;;;2.03;0.90;;;4.20;99.90;;;;;;2080933;28;20179;-69
2021/05/25 03:28:17;;;;;;;1.47;0.80;;;4.30;99.90;;;;;;2081070;28;20661;-69
2021/05/25 03:29:17;;;;;;;2.83;0.80;;;4.30;99.90;;;;;;2080991;28;20193;-69
2021/05/25 03:30:23;;;;;;;2.67;0.77;;;4.30;99.90;;;;;;2089982;28;20612;-69
2021/05/25 03:31:23;;;;;;;1.23;0.80;;;4.30;99.90;;;;;;2089608;28;20175;-68
2021/05/25 03:32:24;;;;;;;1.47;0.80;;;4.30;99.90;;;;;;2089932;28;20260;-70
2021/05/25 03:33:25;;;;;;;2.83;1.20;;;4.30;99.90;;;;;;2089811;28;20212;-70
2021/05/25 03:34:26;;;;;;;3.43;0.90;;;4.30;99.90;;;;;;2089645;28;20721;-70
2021/05/25 03:35:27;;;;;;;1.40;0.90;;;4.30;99.90;;;;;;2089737;28;20224;-69
2021/05/25 03:36:28;;;;;;;3.22;1.02;;;4.30;99.90;;;;;;2081051;28;20191;-68
2021/05/25 03:37:29;;;;;;;2.90;0.83;;;4.40;99.90;;;;;;2080929;28;21003;-69
2021/05/25 03:38:30;;;;;;;4.20;1.10;;;4.40;99.90;;;;;;2080976;28;20186;-69
2021/05/25 03:39:31;;;;;;;4.03;1.10;;;4.40;99.90;;;;;;2072569;28;20800;-69
2021/05/25 03:40:31;;;;;;;4.43;0.90;;;4.40;99.90;;;;;;2081107;28;20560;-69
2021/05/25 03:41:32;;;;;;;3.90;0.97;;;4.30;99.90;;;;;;2089471;28;20688;-69
2021/05/25 03:42:34;;;;;;;2.70;0.93;;;4.40;99.90;;;;;;2089850;28;20182;-69
2021/05/25 03:43:35;;;;;;;3.17;1.30;;;4.40;99.90;;;;;;2089566;28;20512;-69
2021/05/25 03:44:35;;;;;;;2.43;0.87;;;4.40;99.90;;;;;;2089745;28;20198;-69
2021/05/25 03:45:36;;;;;;;3.27;1.10;;;4.40;99.90;;;;;;2089474;28;20193;-69
2021/05/25 03:46:37;;;;;;;5.30;0.83;;;4.30;99.90;;;;;;2089843;28;20261;-69
2021/05/25 03:47:37;;;;;;;4.50;1.10;;;4.40;99.90;;;;;;2089703;28;20182;-69
2021/05/25 03:48:38;;;;;;;3.73;1.50;;;4.40;99.90;;;;;;2089695;28;20189;-69
2021/05/25 03:49:39;;;;;;;1.67;0.85;;;4.40;99.90;;;;;;2080664;28;20188;-69
2021/05/25 03:50:40;;;;;;;1.83;0.90;;;4.40;99.90;;;;;;2072630;28;20267;-69
2021/05/25 03:51:41;;;;;;;1.80;1.10;;;4.40;99.90;;;;;;2080670;28;20225;-69
2021/05/25 03:52:47;;;;;;;1.60;1.00;;;4.40;99.90;;;;;;2088949;28;20575;-69
2021/05/25 03:53:50;;;;;;;2.15;0.77;;;4.40;99.90;;;;;;2080657;28;20744;-69
2021/05/25 03:54:55;;;;;;;4.60;1.27;;;4.40;99.90;;;;;;2081190;28;20184;-69
2021/05/25 03:56:15;;;;;;;2.97;0.93;;;4.40;99.90;;;;;;2089604;28;20233;-69
2021/05/25 03:58:49;;;;;;;2.50;1.10;;;4.40;99.90;;;;;;2089716;28;20258;-69
2021/05/25 03:59:50;;;;;;;2.65;0.90;;;4.50;99.90;;;;;;2089963;28;20156;-69
2021/05/25 04:00:52;;;;;;;2.73;1.00;;;4.50;99.90;;;;;;2089846;28;20585;-69
2021/05/25 04:01:53;;;;;;;3.78;1.08;;;4.50;99.90;;;;;;2080533;28;20735;-69
2021/05/25 04:02:53;;;;;;;2.20;1.00;;;4.50;99.90;;;;;;2080835;28;20226;-69
2021/05/25 04:03:56;;;;;;;1.80;0.80;;;4.50;99.90;;;;;;2089625;28;20206;-69
2021/05/25 04:04:57;;;;;;;2.38;0.95;;;4.60;99.90;;;;;;2080806;28;20283;-69
2021/05/25 04:05:57;;;;;;;5.30;1.10;;;4.60;99.90;;;;;;2080896;28;20192;-69
2021/05/25 04:06:58;;;;;;;2.47;1.30;;;4.60;99.90;;;;;;2080775;28;20240;-68
2021/05/25 04:07:59;;;;;;;3.90;1.10;;;4.50;99.90;;;;;;2089560;28;20263;-69
2021/05/25 04:08:59;;;;;;;4.97;1.37;;;4.50;99.90;;;;;;2089416;28;20178;-69
2021/05/25 04:10:00;;;;;;;2.67;0.80;;;4.50;99.90;;;;;;2089597;28;20608;-69
2021/05/25 04:11:01;;;;;;;4.77;1.03;;;4.50;99.90;;;;;;2089427;28;20182;-69
2021/05/25 04:12:02;;;;;;;2.20;1.10;;;4.50;99.90;;;;;;2087853;28;20661;-69
2021/05/25 04:13:03;;;;;;;4.97;0.90;;;4.50;99.90;;;;;;2088559;28;20268;-69
2021/05/25 04:14:04;;;;;;;2.38;1.00;;;4.50;99.90;;;;;;2088680;28;20218;-69
2021/05/25 04:15:06;;;;;;;3.22;0.90;;;4.50;99.90;;;;;;2081177;28;20191;-69
2021/05/25 04:16:12;;;;;;;1.25;0.70;;;4.50;99.90;;;;;;2081251;28;20171;-74
2021/05/25 04:17:13;;;;;;;2.92;1.10;;;4.50;99.90;;;;;;2080829;28;20662;-68
2021/05/25 04:18:14;;;;;;;2.23;1.03;;;4.60;99.90;;;;;;2080786;28;20239;-69
2021/05/25 04:19:15;;;;;;;4.88;1.10;;;4.50;99.90;;;;;;2080678;28;20213;-68
2021/05/25 04:20:16;;;;;;;2.17;0.90;;;4.60;99.90;;;;;;2119130;22;20860;-68
2021/05/25 04:21:17;;;;;;;2.47;0.80;;;4.60;99.90;;;;;;2080962;28;20215;-68
2021/05/25 04:22:17;;;;;;;3.80;1.20;;;4.60;99.90;;;;;;2083767;28;20638;-69
2021/05/25 04:23:18;;;;;;;2.10;0.97;;;4.60;99.90;;;;;;2088990;28;20190;-69
2021/05/25 04:24:19;;;;;;;1.85;0.77;;;4.60;99.90;;;;;;2081139;28;20190;-68
2021/05/25 04:25:20;;;;;;;2.07;0.87;;;4.60;99.90;;;;;;2081341;28;20195;-68
2021/05/25 04:26:21;;;;;;;1.52;0.90;;;4.60;99.90;;;;;;2081200;28;20267;-69
2021/05/25 04:27:22;;;;;;;1.30;0.70;;;4.60;99.90;;;;;;2081264;28;20191;-68
2021/05/25 04:28:22;;;;;;;2.33;0.90;;;4.70;99.90;;;;;;2081111;28;20180;-68
2021/05/25 04:29:23;;;;;;;3.83;1.00;;;4.70;99.90;;;;;;2080868;28;20186;-68
2021/05/25 04:30:24;;;;;;;1.90;0.73;;;4.70;99.90;;;;;;2080525;28;20285;-68
2021/05/25 04:31:25;;;;;;;0.95;0.82;;;4.80;99.90;;;;;;2080905;28;20214;-69
2021/05/25 04:32:25;;;;;;;6.30;1.20;;;4.80;99.90;;;;;;2081159;28;20196;-69
2021/05/25 04:33:26;;;;;;;5.00;1.33;;;4.80;99.90;;;;;;2085553;28;20196;-68
2021/05/25 04:34:27;;;;;;;2.00;1.03;;;4.90;99.90;;;;;;2088549;28;20217;-68
2021/05/25 04:35:28;;;;;;;1.67;0.87;;;4.90;99.90;;;;;;2088713;28;20703;-68
2021/05/25 04:36:29;;;;;;;1.57;0.90;;;4.90;99.90;;;;;;2089285;28;20659;-68
2021/05/25 04:37:29;;;;;;;1.77;0.77;;;4.90;99.90;;;;;;2088782;28;20179;-68
2021/05/25 04:38:30;;;;;;;1.77;0.80;;;4.90;99.90;;;;;;2088701;28;20530;-68
2021/05/25 04:39:31;;;;;;;2.30;0.97;;;4.90;99.90;;;;;;2089206;28;20187;-68
2021/05/25 04:40:33;;;;;;;1.53;0.90;;;4.90;99.90;;;;;;2089148;28;20609;-69
2021/05/25 04:41:34;;;;;;;2.33;0.90;;;5.00;99.90;;;;;;2089124;28;20178;-69
2021/05/25 04:42:34;;;;;;;2.10;0.80;;;5.00;99.90;;;;;;2089231;28;20183;-69
2021/05/25 04:43:35;;;;;;;1.97;0.90;;;5.00;99.90;;;;;;2089369;28;20178;-69
2021/05/25 04:44:36;;;;;;;1.27;0.80;;;5.10;99.90;;;;;;2088639;28;20175;-69
2021/05/25 04:45:39;;;;;;;2.00;0.70;;;5.10;99.90;;;;;;2088687;28;20179;-69
2021/05/25 04:46:40;;;;;;;1.67;0.85;;;5.00;99.90;;;;;;2089168;28;20683;-69
2021/05/25 04:47:40;;;;;;;2.63;0.80;;;5.10;99.90;;;;;;2089457;28;20202;-69
2021/05/25 04:48:41;;;;;;;5.03;1.00;;;5.10;99.90;;;;;;2088556;28;20266;-69
2021/05/25 04:49:42;;;;;;;1.77;1.00;;;5.20;99.90;;;;;;2088568;28;20180;-69
2021/05/25 04:50:42;;;;;;;3.40;0.97;;;5.20;99.90;;;;;;2089256;28;20262;-69
2021/05/25 04:51:43;;;;;;;1.80;0.80;;;5.20;99.90;;;;;;2088935;28;20182;-69
2021/05/25 04:52:44;;;;;;;2.17;0.60;;;5.30;99.90;;;;;;2089340;28;20180;-68
2021/05/25 04:53:44;;;;;;;2.30;0.90;;;5.20;99.90;;;;;;2089240;28;20205;-69
2021/05/25 04:54:45;;;;;;;1.90;0.90;;;5.20;99.90;;;;;;2089295;28;20211;-69
2021/05/25 04:55:46;;;;;;;2.53;0.80;;;5.20;99.90;;;;;;2089191;28;20172;-69
2021/05/25 04:56:47;;;;;;;1.57;0.80;;;5.20;99.90;;;;;;2089327;28;20196;-69
2021/05/25 04:57:49;;;;;;;1.87;0.80;;;5.30;99.90;;;;;;2089154;28;20175;-69
2021/05/25 04:58:50;;;;;;;1.98;0.90;;;5.30;99.90;;;;;;2088684;28;20679;-69
2021/05/25 04:59:51;;;;;;;3.80;1.60;;;5.30;99.90;;;;;;2088488;28;20196;-68
2021/05/25 05:00:51;;;;;;;4.80;0.90;;;5.20;99.90;;;;;;2089366;28;20175;-69
2021/05/25 05:01:52;;;;;;;2.83;0.80;;;5.10;99.90;;;;;;2088850;28;20712;-69
2021/05/25 05:02:55;;;;;;;1.73;1.00;;;5.10;99.90;;;;;;2089140;28;20224;-68
2021/05/25 05:03:55;;;;;;;3.92;1.00;;;5.00;99.90;;;;;;2088415;28;20551;-69
2021/05/25 05:04:56;;;;;;;3.37;1.20;;;5.00;99.90;;;;;;2088697;28;20213;-68
2021/05/25 05:05:57;;;;;;;4.10;1.07;;;4.90;99.90;;;;;;2089104;28;20179;-69
2021/05/25 05:06:58;;;;;;;2.33;0.80;;;5.00;99.90;;;;;;2089445;28;20226;-70
2021/05/25 05:07:58;;;;;;;1.80;0.77;;;4.90;99.90;;;;;;2089004;28;20183;-69
2021/05/25 05:08:59;;;;;;;4.13;0.90;;;4.90;99.90;;;;;;2089256;28;20204;-69
2021/05/25 05:10:00;;;;;;;3.00;1.00;;;5.00;99.90;;;;;;2089129;28;20602;-68
2021/05/25 05:11:01;;;;;;;3.58;0.80;;;5.00;99.90;;;;;;2088648;28;20784;-69
2021/05/25 05:12:02;;;;;;;6.70;0.97;;;5.00;99.90;;;;;;2088351;28;20202;-69
2021/05/25 05:13:08;;;;;;;2.80;1.00;;;5.00;99.90;;;;;;2088504;28;20179;-69
2021/05/25 05:14:09;;;;;;;2.90;0.90;;;4.90;99.90;;;;;;2088390;28;20206;-68
2021/05/25 05:15:12;;;;;;;2.70;1.00;;;4.90;99.90;;;;;;2088709;28;20268;-69
2021/05/25 05:16:13;;;;;;;5.18;2.10;;;4.90;99.90;;;;;;2088517;28;20205;-69
2021/05/25 05:17:14;;;;;;;3.65;1.00;;;4.90;99.90;;;;;;2088601;28;20590;-68
2021/05/25 05:18:14;;;;;;;3.67;1.00;;;5.00;99.90;;;;;;2089025;28;20173;-69
2021/05/25 05:19:15;;;;;;;3.40;0.70;;;5.00;99.90;;;;;;2089255;28;20184;-69
2021/05/25 05:20:17;;;;;;;1.57;1.00;;;5.00;99.90;;;;;;2088937;28;20232;-70
2021/05/25 05:21:17;;;;;;;3.55;0.80;;;4.90;99.90;;;;;;2088951;28;20549;-69
2021/05/25 05:22:18;;;;;;;4.80;0.90;;;4.90;99.90;;;;;;2089153;28;20197;-69
2021/05/25 05:23:19;;;;;;;2.17;0.90;;;4.90;99.90;;;;;;2088665;28;20181;-68
2021/05/25 05:24:20;;;;;;;1.10;0.70;;;4.90;99.90;;;;;;2088434;28;20229;-69
2021/05/25 05:25:21;;;;;;;2.73;1.10;;;5.00;99.90;;;;;;2089315;28;20187;-69
2021/05/25 05:26:21;;;;;;;3.67;0.90;;;5.00;99.90;;;;;;2089111;28;20183;-69
2021/05/25 05:27:22;;;;;;;4.80;0.73;;;5.00;99.90;;;;;;2089180;28;20644;-69